createdAt,value
2022-11-05T00:00:13.142Z,99.99
2022-11-05T00:01:13.103Z,99.99
2022-11-05T00:02:13.106Z,99.99
2022-11-05T00:03:13.460Z,99.99
2022-11-05T00:04:14.289Z,99.99
2022-11-05T00:05:14.267Z,99.99
2022-11-05T00:06:14.207Z,99.99
2022-11-05T00:07:15.220Z,99.99
2022-11-05T00:08:14.196Z,99.99
2022-11-05T00:09:14.205Z,99.99
2022-11-05T00:10:14.217Z,99.99
2022-11-05T00:11:18.135Z,99.99
2022-11-05T00:12:15.161Z,99.99
2022-11-05T00:13:15.162Z,99.99
2022-11-05T00:14:14.140Z,99.99
2022-11-05T00:15:14.162Z,99.99
2022-11-05T00:16:14.126Z,99.99
2022-11-05T00:17:14.124Z,99.99
2022-11-05T00:18:14.111Z,99.99
2022-11-05T00:19:14.109Z,99.99
2022-11-05T00:20:14.148Z,99.99
2022-11-05T00:21:14.086Z,99.99
2022-11-05T00:22:14.077Z,99.99
2022-11-05T00:23:14.064Z,99.99
2022-11-05T00:24:14.063Z,99.99
2022-11-05T00:25:14.090Z,99.99
2022-11-05T00:26:14.043Z,99.99
2022-11-05T00:27:14.044Z,99.99
2022-11-05T00:28:14.272Z,99.99
2022-11-05T00:29:14.035Z,99.99
2022-11-05T00:30:14.041Z,99.99
2022-11-05T00:31:14.008Z,99.99
2022-11-05T00:32:13.997Z,99.99
2022-11-05T00:33:13.983Z,99.99
2022-11-05T00:34:13.994Z,99.99
2022-11-05T00:35:14.019Z,99.99
2022-11-05T00:36:13.963Z,99.99
2022-11-05T00:37:13.959Z,99.99
2022-11-05T00:38:13.959Z,99.99
2022-11-05T00:39:13.938Z,99.99
2022-11-05T00:40:13.958Z,99.99
2022-11-05T00:41:13.924Z,99.99
2022-11-05T00:42:13.910Z,99.99
2022-11-05T00:43:14.070Z,99.99
2022-11-05T00:44:13.889Z,99.99
2022-11-05T00:45:13.911Z,99.99
2022-11-05T00:46:13.894Z,99.99
2022-11-05T00:47:13.863Z,99.99
2022-11-05T00:48:13.884Z,99.99
2022-11-05T00:49:13.894Z,99.99
2022-11-05T00:50:13.885Z,99.99
2022-11-05T00:51:13.853Z,99.99
2022-11-05T00:52:13.818Z,99.99
2022-11-05T00:53:14.017Z,99.99
2022-11-05T00:54:13.834Z,99.99
2022-11-05T00:55:13.843Z,99.99
2022-11-05T00:56:13.805Z,99.99
2022-11-05T00:57:13.808Z,99.99
2022-11-05T00:58:13.771Z,99.99
2022-11-05T00:59:13.790Z,99.99
2022-11-05T01:00:13.871Z,99.99
2022-11-05T01:01:13.816Z,99.99
2022-11-05T01:02:13.854Z,99.99
2022-11-05T01:03:14.182Z,99.99
2022-11-05T01:04:13.713Z,99.99
2022-11-05T01:05:13.758Z,99.99
2022-11-05T01:06:13.703Z,99.99
2022-11-05T01:07:13.715Z,99.99
2022-11-05T01:08:13.709Z,99.99
2022-11-05T01:09:13.680Z,99.99
2022-11-05T01:10:13.697Z,99.99
2022-11-05T01:11:13.688Z,99.99
2022-11-05T01:12:13.660Z,99.99
2022-11-05T01:13:13.744Z,99.99
2022-11-05T01:14:13.640Z,99.99
2022-11-05T01:15:13.671Z,99.99
2022-11-05T01:16:13.615Z,99.99
2022-11-05T01:17:13.616Z,99.99
2022-11-05T01:18:13.598Z,99.99
2022-11-05T01:19:13.589Z,99.99
2022-11-05T01:20:13.627Z,99.99
2022-11-05T01:21:13.571Z,99.99
2022-11-05T01:22:13.569Z,99.99
2022-11-05T01:23:14.017Z,99.99
2022-11-05T01:24:14.546Z,99.99
2022-11-05T01:25:13.589Z,99.99
2022-11-05T01:26:13.530Z,99.99
2022-11-05T01:27:13.552Z,99.99
2022-11-05T01:28:13.532Z,99.99
2022-11-05T01:29:13.626Z,99.99
2022-11-05T01:30:13.527Z,99.99
2022-11-05T01:31:13.526Z,99.99
2022-11-05T01:32:13.563Z,99.99
2022-11-05T01:33:13.893Z,99.99
2022-11-05T01:34:13.487Z,99.99
2022-11-05T01:35:13.473Z,99.99
2022-11-05T01:36:13.473Z,99.99
2022-11-05T01:37:13.470Z,99.99
2022-11-05T01:38:13.441Z,99.99
2022-11-05T01:39:13.431Z,99.99
2022-11-05T01:40:13.416Z,99.99
2022-11-05T01:41:14.446Z,99.99
2022-11-05T01:42:13.398Z,99.99
2022-11-05T01:43:13.486Z,99.99
2022-11-05T01:44:13.381Z,99.99
2022-11-05T01:45:13.397Z,99.99
2022-11-05T01:46:13.394Z,99.99
2022-11-05T01:47:13.366Z,99.99
2022-11-05T01:48:13.400Z,99.99
2022-11-05T01:49:13.340Z,99.99
2022-11-05T01:50:13.344Z,99.99
2022-11-05T01:51:13.364Z,99.99
2022-11-05T01:52:13.321Z,99.99
2022-11-05T01:53:13.682Z,99.99
2022-11-05T01:54:13.309Z,99.99
2022-11-05T01:55:13.289Z,99.99
2022-11-05T01:56:13.357Z,99.99
2022-11-05T01:57:13.281Z,99.99
2022-11-05T01:58:13.264Z,99.99
2022-11-05T01:59:13.275Z,99.99
2022-11-05T02:00:13.259Z,99.99
2022-11-05T02:01:13.266Z,99.99
2022-11-05T02:02:13.300Z,99.99
2022-11-05T02:03:13.591Z,99.99
2022-11-05T02:04:13.222Z,99.99
2022-11-05T02:05:13.203Z,99.99
2022-11-05T02:06:13.226Z,99.99
2022-11-05T02:07:13.190Z,99.99
2022-11-05T02:08:13.181Z,99.99
2022-11-05T02:09:13.153Z,99.99
2022-11-05T02:10:14.168Z,99.99
2022-11-05T02:11:13.187Z,99.99
2022-11-05T02:12:13.143Z,99.99
2022-11-05T02:13:13.355Z,99.99
2022-11-05T02:14:13.119Z,99.99
2022-11-05T02:15:13.122Z,99.99
2022-11-05T02:16:13.183Z,99.99
2022-11-05T02:17:13.113Z,99.99
2022-11-05T02:18:13.138Z,99.99
2022-11-05T02:19:13.093Z,99.99
2022-11-05T02:20:13.074Z,99.99
2022-11-05T02:21:13.157Z,99.99
2022-11-05T02:22:13.076Z,99.99
2022-11-05T02:23:13.381Z,99.99
2022-11-05T02:24:13.051Z,99.99
2022-11-05T02:25:13.056Z,99.99
2022-11-05T02:26:13.049Z,99.99
2022-11-05T02:27:13.092Z,99.99
2022-11-05T02:28:13.019Z,99.99
2022-11-05T02:29:13.006Z,99.99
2022-11-05T02:30:13.028Z,99.99
2022-11-05T02:31:13.047Z,99.99
2022-11-05T02:32:12.968Z,99.99
2022-11-05T02:33:13.230Z,99.99
2022-11-05T02:34:12.959Z,99.99
2022-11-05T02:35:12.948Z,99.99
2022-11-05T02:36:13.024Z,99.99
2022-11-05T02:37:12.975Z,99.99
2022-11-05T02:38:12.932Z,99.99
2022-11-05T02:39:13.913Z,99.99
2022-11-05T02:40:12.927Z,99.99
2022-11-05T02:41:12.941Z,99.99
2022-11-05T02:42:12.884Z,99.99
2022-11-05T02:43:13.230Z,99.99
2022-11-05T02:44:12.869Z,99.99
2022-11-05T02:45:12.901Z,99.99
2022-11-05T02:46:12.875Z,99.99
2022-11-05T02:47:17.064Z,99.99
2022-11-05T02:48:14.835Z,99.99
2022-11-05T02:49:12.840Z,99.99
2022-11-05T02:50:12.828Z,99.99
2022-11-05T02:51:12.809Z,99.99
2022-11-05T02:52:12.827Z,99.99
2022-11-05T02:53:13.065Z,99.99
2022-11-05T02:54:12.788Z,99.99
2022-11-05T02:55:12.785Z,99.99
2022-11-05T02:56:12.765Z,99.99
2022-11-05T02:57:12.845Z,99.99
2022-11-05T02:58:12.749Z,99.99
2022-11-05T02:59:12.745Z,99.99
2022-11-05T03:00:12.741Z,99.99
2022-11-05T03:01:12.730Z,99.99
2022-11-05T03:02:12.878Z,99.99
2022-11-05T03:03:12.935Z,99.99
2022-11-05T03:04:12.691Z,99.99
2022-11-05T03:05:13.722Z,99.99
2022-11-05T03:06:12.690Z,99.99
2022-11-05T03:07:12.705Z,99.99
2022-11-05T03:08:12.677Z,99.99
2022-11-05T03:09:12.660Z,99.99
2022-11-05T03:10:12.672Z,99.99
2022-11-05T03:11:12.644Z,99.99
2022-11-05T03:12:12.664Z,99.99
2022-11-05T03:13:12.922Z,99.99
2022-11-05T03:14:12.609Z,99.99
2022-11-05T03:15:12.634Z,99.99
2022-11-05T03:16:12.640Z,99.99
2022-11-05T03:17:12.624Z,99.99
2022-11-05T03:18:12.620Z,99.99
2022-11-05T03:19:12.606Z,99.99
2022-11-05T03:20:12.566Z,99.99
2022-11-05T03:21:12.561Z,99.99
2022-11-05T03:22:12.583Z,99.99
2022-11-05T03:23:13.009Z,99.99
2022-11-05T03:24:12.536Z,99.99
2022-11-05T03:25:12.553Z,99.99
2022-11-05T03:26:12.519Z,99.99
2022-11-05T03:27:12.543Z,99.99
2022-11-05T03:28:12.526Z,99.99
2022-11-05T03:29:12.522Z,99.99
2022-11-05T03:30:12.505Z,99.99
2022-11-05T03:31:12.481Z,99.99
2022-11-05T03:32:12.513Z,99.99
2022-11-05T03:33:12.708Z,99.99
2022-11-05T03:34:12.478Z,99.99
2022-11-05T03:35:12.452Z,99.99
2022-11-05T03:36:12.443Z,99.99
2022-11-05T03:37:12.436Z,99.99
2022-11-05T03:38:12.460Z,99.99
2022-11-05T03:39:12.458Z,99.99
2022-11-05T03:40:12.401Z,99.99
2022-11-05T03:41:12.398Z,99.99
2022-11-05T03:42:12.404Z,99.99
2022-11-05T03:43:12.749Z,99.99
2022-11-05T03:44:12.368Z,99.99
2022-11-05T03:45:12.361Z,99.99
2022-11-05T03:46:12.369Z,99.99
2022-11-05T03:47:12.348Z,99.99
2022-11-05T03:48:12.444Z,99.99
2022-11-05T03:49:12.350Z,99.99
2022-11-05T03:50:12.315Z,99.99
2022-11-05T03:51:12.310Z,99.99
2022-11-05T03:52:12.305Z,99.99
2022-11-05T03:53:12.615Z,99.99
2022-11-05T03:54:12.306Z,99.99
2022-11-05T03:55:12.280Z,99.99
2022-11-05T03:56:12.266Z,99.99
2022-11-05T03:57:12.273Z,99.99
2022-11-05T03:58:12.279Z,99.99
2022-11-05T03:59:12.267Z,99.99
2022-11-05T04:00:12.267Z,99.99
2022-11-05T04:01:12.226Z,99.99
2022-11-05T04:02:12.364Z,99.99
2022-11-05T04:03:12.598Z,99.99
2022-11-05T04:04:12.201Z,99.99
2022-11-05T04:05:12.195Z,99.99
2022-11-05T04:06:13.967Z,99.99
2022-11-05T04:07:13.216Z,99.99
2022-11-05T04:08:14.497Z,99.99
2022-11-05T04:09:13.154Z,99.99
2022-11-05T04:10:12.161Z,99.99
2022-11-05T04:11:12.150Z,99.99
2022-11-05T04:12:12.201Z,99.99
2022-11-05T04:13:12.438Z,99.99
2022-11-05T04:14:12.125Z,99.99
2022-11-05T04:15:12.110Z,99.99
2022-11-05T04:16:12.096Z,99.99
2022-11-05T04:17:12.105Z,99.99
2022-11-05T04:18:12.112Z,99.99
2022-11-05T04:19:12.171Z,99.99
2022-11-05T04:20:12.063Z,99.99
2022-11-05T04:21:12.070Z,99.99
2022-11-05T04:22:12.093Z,99.99
2022-11-05T04:23:12.324Z,99.99
2022-11-05T04:24:12.028Z,99.99
2022-11-05T04:25:12.021Z,99.99
2022-11-05T04:26:12.012Z,99.99
2022-11-05T04:27:12.040Z,99.99
2022-11-05T04:28:12.027Z,99.99
2022-11-05T04:29:12.013Z,99.99
2022-11-05T04:30:11.976Z,99.99
2022-11-05T04:31:11.969Z,99.99
2022-11-05T04:32:12.010Z,99.99
2022-11-05T04:33:12.284Z,99.99
2022-11-05T04:34:11.950Z,99.99
2022-11-05T04:35:11.951Z,99.99
2022-11-05T04:36:11.957Z,99.99
2022-11-05T04:37:11.922Z,99.99
2022-11-05T04:38:11.946Z,99.99
2022-11-05T04:39:11.957Z,99.99
2022-11-05T04:40:11.907Z,99.99
2022-11-05T04:41:11.888Z,99.99
2022-11-05T04:42:11.873Z,99.99
2022-11-05T04:43:15.128Z,99.99
2022-11-05T04:44:12.858Z,99.99
2022-11-05T04:45:11.875Z,99.99
2022-11-05T04:46:11.840Z,99.99
2022-11-05T04:47:11.852Z,99.99
2022-11-05T04:48:11.876Z,99.99
2022-11-05T04:49:11.849Z,99.99
2022-11-05T04:50:11.818Z,99.99
2022-11-05T04:51:11.806Z,99.99
2022-11-05T04:52:11.800Z,99.99
2022-11-05T04:53:12.166Z,99.99
2022-11-05T04:54:11.805Z,99.99
2022-11-05T04:55:11.804Z,99.99
2022-11-05T04:56:11.788Z,99.99
2022-11-05T04:57:11.746Z,99.99
2022-11-05T04:58:11.762Z,99.99
2022-11-05T04:59:11.745Z,99.99
2022-11-05T05:00:11.724Z,99.99
2022-11-05T05:01:11.784Z,99.99
2022-11-05T05:02:11.747Z,99.99
2022-11-05T05:03:12.143Z,99.99
2022-11-05T05:04:11.695Z,99.99
2022-11-05T05:05:11.690Z,99.99
2022-11-05T05:06:11.673Z,99.99
2022-11-05T05:07:11.695Z,99.99
2022-11-05T05:08:11.697Z,99.99
2022-11-05T05:09:11.655Z,99.99
2022-11-05T05:10:11.664Z,99.99
2022-11-05T05:11:11.642Z,99.99
2022-11-05T05:12:11.645Z,99.99
2022-11-05T05:13:12.047Z,99.99
2022-11-05T05:14:11.618Z,99.99
2022-11-05T05:15:11.619Z,99.99
2022-11-05T05:16:11.605Z,99.99
2022-11-05T05:17:11.589Z,99.99
2022-11-05T05:18:11.619Z,99.99
2022-11-05T05:19:11.580Z,99.99
2022-11-05T05:20:11.552Z,99.99
2022-11-05T05:21:11.556Z,99.99
2022-11-05T05:22:11.576Z,99.99
2022-11-05T05:23:11.984Z,99.99
2022-11-05T05:24:11.539Z,99.99
2022-11-05T05:25:11.519Z,99.99
2022-11-05T05:26:11.507Z,99.99
2022-11-05T05:27:11.503Z,99.99
2022-11-05T05:28:11.545Z,99.99
2022-11-05T05:29:11.511Z,99.99
2022-11-05T05:30:11.472Z,99.99
2022-11-05T05:31:11.464Z,99.99
2022-11-05T05:32:12.465Z,99.99
2022-11-05T05:33:11.747Z,99.99
2022-11-05T05:34:11.500Z,99.99
2022-11-05T05:35:11.480Z,99.99
2022-11-05T05:36:11.735Z,99.99
2022-11-05T05:37:12.421Z,99.99
2022-11-05T05:38:11.473Z,99.99
2022-11-05T05:39:11.409Z,99.99
2022-11-05T05:40:11.417Z,99.99
2022-11-05T05:41:11.392Z,99.99
2022-11-05T05:42:11.388Z,99.99
2022-11-05T05:43:11.808Z,99.99
2022-11-05T05:44:11.354Z,99.99
2022-11-05T05:45:11.377Z,99.99
2022-11-05T05:46:11.352Z,99.99
2022-11-05T05:47:11.354Z,99.99
2022-11-05T05:48:11.362Z,99.99
2022-11-05T05:49:12.632Z,99.99
2022-11-05T05:50:12.307Z,99.99
2022-11-05T05:51:11.307Z,99.99
2022-11-05T05:52:11.301Z,99.99
2022-11-05T05:53:11.670Z,99.99
2022-11-05T05:54:11.279Z,99.99
2022-11-05T05:55:11.269Z,99.99
2022-11-05T05:56:11.271Z,99.99
2022-11-05T05:57:11.301Z,99.99
2022-11-05T05:58:11.258Z,99.99
2022-11-05T05:59:11.272Z,99.99
2022-11-05T06:00:11.227Z,99.99
2022-11-05T06:01:17.204Z,99.99
2022-11-05T06:02:13.289Z,99.99
2022-11-05T06:03:11.450Z,99.99
2022-11-05T06:04:11.223Z,99.99
2022-11-05T06:05:11.210Z,99.99
2022-11-05T06:06:11.180Z,99.99
2022-11-05T06:07:11.171Z,99.99
2022-11-05T06:08:11.161Z,99.99
2022-11-05T06:09:11.180Z,99.99
2022-11-05T06:10:11.145Z,99.99
2022-11-05T06:11:11.190Z,99.99
2022-11-05T06:12:11.125Z,99.99
2022-11-05T06:13:11.483Z,99.99
2022-11-05T06:14:11.160Z,99.99
2022-11-05T06:15:11.136Z,99.99
2022-11-05T06:16:11.126Z,99.99
2022-11-05T06:17:11.094Z,99.99
2022-11-05T06:18:11.079Z,99.99
2022-11-05T06:19:11.113Z,99.99
2022-11-05T06:20:11.067Z,99.99
2022-11-05T06:21:11.055Z,99.99
2022-11-05T06:22:11.046Z,99.99
2022-11-05T06:23:11.213Z,99.99
2022-11-05T06:24:11.064Z,99.99
2022-11-05T06:25:11.040Z,99.99
2022-11-05T06:26:11.042Z,99.99
2022-11-05T06:27:11.016Z,99.99
2022-11-05T06:28:11.005Z,99.99
2022-11-05T06:29:11.022Z,99.99
2022-11-05T06:30:10.985Z,99.99
2022-11-05T06:31:10.971Z,99.99
2022-11-05T06:32:10.975Z,99.99
2022-11-05T06:33:11.128Z,99.99
2022-11-05T06:34:10.976Z,99.99
2022-11-05T06:35:10.937Z,99.99
2022-11-05T06:36:10.929Z,99.99
2022-11-05T06:37:10.946Z,99.99
2022-11-05T06:38:10.942Z,99.99
2022-11-05T06:39:10.930Z,99.99
2022-11-05T06:40:10.903Z,99.99
2022-11-05T06:41:11.016Z,99.99
2022-11-05T06:42:19.331Z,99.99
2022-11-05T06:43:13.410Z,99.99
2022-11-05T06:44:10.887Z,99.99
2022-11-05T06:45:10.854Z,99.99
2022-11-05T06:46:10.854Z,99.99
2022-11-05T06:47:10.837Z,99.99
2022-11-05T06:48:10.871Z,99.99
2022-11-05T06:49:10.854Z,99.99
2022-11-05T06:50:10.842Z,99.99
2022-11-05T06:51:10.804Z,99.99
2022-11-05T06:52:10.793Z,99.99
2022-11-05T06:53:10.966Z,99.99
2022-11-05T06:54:10.815Z,99.99
2022-11-05T06:55:10.770Z,99.99
2022-11-05T06:56:10.761Z,99.99
2022-11-05T06:57:10.760Z,99.99
2022-11-05T06:58:10.744Z,99.99
2022-11-05T06:59:10.751Z,99.99
2022-11-05T07:00:10.771Z,99.99
2022-11-05T07:01:10.808Z,99.99
2022-11-05T07:02:10.770Z,99.99
2022-11-05T07:03:10.959Z,99.99
2022-11-05T07:04:10.695Z,99.99
2022-11-05T07:05:10.718Z,99.99
2022-11-05T07:06:10.698Z,99.99
2022-11-05T07:07:10.682Z,99.99
2022-11-05T07:08:10.665Z,99.99
2022-11-05T07:09:10.652Z,99.99
2022-11-05T07:10:10.670Z,99.99
2022-11-05T07:11:10.634Z,99.99
2022-11-05T07:12:10.628Z,99.99
2022-11-05T07:13:11.135Z,99.99
2022-11-05T07:14:10.607Z,99.99
2022-11-05T07:15:10.632Z,99.99
2022-11-05T07:16:10.594Z,99.99
2022-11-05T07:17:10.586Z,99.99
2022-11-05T07:18:10.588Z,99.99
2022-11-05T07:19:10.567Z,99.99
2022-11-05T07:20:10.607Z,99.99
2022-11-05T07:21:10.552Z,99.99
2022-11-05T07:22:10.538Z,99.99
2022-11-05T07:23:10.966Z,99.99
2022-11-05T07:24:10.531Z,99.99
2022-11-05T07:25:10.549Z,99.99
2022-11-05T07:26:10.509Z,99.99
2022-11-05T07:27:10.497Z,99.99
2022-11-05T07:28:10.513Z,99.99
2022-11-05T07:29:10.485Z,99.99
2022-11-05T07:30:10.530Z,99.99
2022-11-05T07:31:10.476Z,99.99
2022-11-05T07:32:10.461Z,99.99
2022-11-05T07:33:11.850Z,99.99
2022-11-05T07:34:10.456Z,99.99
2022-11-05T07:35:10.461Z,99.99
2022-11-05T07:36:10.429Z,99.99
2022-11-05T07:37:10.425Z,99.99
2022-11-05T07:38:10.512Z,99.99
2022-11-05T07:39:10.482Z,99.99
2022-11-05T07:40:10.458Z,99.98
2022-11-05T07:41:10.381Z,98.24
2022-11-05T07:42:10.374Z,96.97
2022-11-05T07:43:10.656Z,96.31
2022-11-05T07:44:42.900Z,96.31
2022-11-05T07:45:10.395Z,94.53
2022-11-05T07:46:13.772Z,94.33
2022-11-05T07:47:11.331Z,94.53
2022-11-05T07:48:10.333Z,95.54
2022-11-05T07:49:10.331Z,96.55
2022-11-05T07:50:10.341Z,97.11
2022-11-05T07:51:10.298Z,97.72
2022-11-05T07:52:10.289Z,97.98
2022-11-05T07:53:10.594Z,97.27
2022-11-05T07:54:10.272Z,97.72
2022-11-05T07:55:10.289Z,98.90
2022-11-05T07:56:10.263Z,98.90
2022-11-05T07:57:10.245Z,99.25
2022-11-05T07:58:10.261Z,99.25
2022-11-05T07:59:10.226Z,99.66
2022-11-05T08:00:10.246Z,99.45
2022-11-05T08:01:10.327Z,99.45
2022-11-05T08:02:10.403Z,98.90
2022-11-05T08:03:10.367Z,97.88
2022-11-05T08:04:10.182Z,96.96
2022-11-05T08:05:10.232Z,96.71
2022-11-05T08:06:10.163Z,96.92
2022-11-05T08:07:10.160Z,96.75
2022-11-05T08:08:10.157Z,96.66
2022-11-05T08:09:10.142Z,96.34
2022-11-05T08:10:10.136Z,97.37
2022-11-05T08:11:10.161Z,97.72
2022-11-05T08:12:10.113Z,97.82
2022-11-05T08:13:10.505Z,98.79
2022-11-05T08:14:10.096Z,98.74
2022-11-05T08:15:10.102Z,98.99
2022-11-05T08:16:10.120Z,99.10
2022-11-05T08:17:10.830Z,98.24
2022-11-05T08:18:10.070Z,97.47
2022-11-05T08:19:10.064Z,97.13
2022-11-05T08:20:10.054Z,95.32
2022-11-05T08:21:10.145Z,92.60
2022-11-05T08:22:10.037Z,90.13
2022-11-05T08:23:10.396Z,89.01
2022-11-05T08:24:10.015Z,89.64
2022-11-05T08:25:10.011Z,86.29
2022-11-05T08:26:10.018Z,86.74
2022-11-05T08:27:11.000Z,86.00
2022-11-05T08:28:09.979Z,87.81
2022-11-05T08:29:09.979Z,89.94
2022-11-05T08:30:09.966Z,91.35
2022-11-05T08:31:09.981Z,91.18
2022-11-05T08:32:09.950Z,91.83
2022-11-05T08:33:10.404Z,92.91
2022-11-05T08:34:09.927Z,91.26
2022-11-05T08:35:09.920Z,90.95
2022-11-05T08:36:09.949Z,89.01
2022-11-05T08:37:09.907Z,85.24
2022-11-05T08:38:09.900Z,83.04
2022-11-05T08:39:15.847Z,80.91
2022-11-05T08:40:11.882Z,78.64
2022-11-05T08:41:09.902Z,78.81
2022-11-05T08:42:09.863Z,76.62
2022-11-05T08:43:10.295Z,75.23
2022-11-05T08:44:09.924Z,74.39
2022-11-05T08:45:09.842Z,71.80
2022-11-05T08:46:09.863Z,71.80
2022-11-05T08:47:09.828Z,71.80
2022-11-05T08:48:09.818Z,71.03
2022-11-05T08:49:09.802Z,72.04
2022-11-05T08:50:09.798Z,72.44
2022-11-05T08:51:09.820Z,72.27
2022-11-05T08:52:09.784Z,74.39
2022-11-05T08:53:10.180Z,73.18
2022-11-05T08:54:09.768Z,73.82
2022-11-05T08:55:09.756Z,75.00
2022-11-05T08:56:09.776Z,75.51
2022-11-05T08:57:09.738Z,76.32
2022-11-05T08:58:09.733Z,76.39
2022-11-05T08:59:09.723Z,76.15
2022-11-05T09:00:09.721Z,76.35
2022-11-05T09:01:09.811Z,75.51
2022-11-05T09:02:09.912Z,74.86
2022-11-05T09:03:10.134Z,73.08
2022-11-05T09:04:09.686Z,71.56
2022-11-05T09:05:09.677Z,71.40
2022-11-05T09:06:09.703Z,69.96
2022-11-05T09:07:09.661Z,69.35
2022-11-05T09:08:09.654Z,67.45
2022-11-05T09:09:09.645Z,66.21
2022-11-05T09:10:09.637Z,65.25
2022-11-05T09:11:09.654Z,66.08
2022-11-05T09:12:12.755Z,66.18
2022-11-05T09:13:16.606Z,66.05
2022-11-05T09:14:11.603Z,63.78
2022-11-05T09:15:09.595Z,64.18
2022-11-05T09:16:09.616Z,64.48
2022-11-05T09:17:09.578Z,64.15
2022-11-05T09:18:09.581Z,63.45
2022-11-05T09:19:09.562Z,62.02
2022-11-05T09:20:09.561Z,64.03
2022-11-05T09:21:09.808Z,60.63
2022-11-05T09:22:09.541Z,60.21
2022-11-05T09:23:09.839Z,59.75
2022-11-05T09:24:09.524Z,57.93
2022-11-05T09:25:09.523Z,58.42
2022-11-05T09:26:09.545Z,58.83
2022-11-05T09:27:09.493Z,58.17
2022-11-05T09:28:14.634Z,56.23
2022-11-05T09:29:14.398Z,56.30
2022-11-05T09:30:10.479Z,55.18
2022-11-05T09:31:09.507Z,54.08
2022-11-05T09:32:09.464Z,55.33
2022-11-05T09:33:09.686Z,56.75
2022-11-05T09:34:10.457Z,57.28
2022-11-05T09:35:09.442Z,56.90
2022-11-05T09:36:09.440Z,58.58
2022-11-05T09:37:09.463Z,57.73
2022-11-05T09:38:09.420Z,56.51
2022-11-05T09:39:09.411Z,56.87
2022-11-05T09:40:09.408Z,56.08
2022-11-05T09:41:09.394Z,57.10
2022-11-05T09:42:09.416Z,57.47
2022-11-05T09:43:09.770Z,55.48
2022-11-05T09:44:09.374Z,55.95
2022-11-05T09:45:09.376Z,56.35
2022-11-05T09:46:09.348Z,57.02
2022-11-05T09:47:09.375Z,56.32
2022-11-05T09:48:09.335Z,55.70
2022-11-05T09:49:09.335Z,56.27
2022-11-05T09:50:09.330Z,55.27
2022-11-05T09:51:09.325Z,54.38
2022-11-05T09:52:09.346Z,53.46
2022-11-05T09:53:09.588Z,53.21
2022-11-05T09:54:09.304Z,53.23
2022-11-05T09:55:09.298Z,52.39
2022-11-05T09:56:09.286Z,51.97
2022-11-05T09:57:09.308Z,52.00
2022-11-05T09:58:09.264Z,52.51
2022-11-05T09:59:09.272Z,50.63
2022-11-05T10:00:09.256Z,49.91
2022-11-05T10:01:09.347Z,53.31
2022-11-05T10:02:09.342Z,50.68
2022-11-05T10:03:09.625Z,51.28
2022-11-05T10:04:09.228Z,51.97
2022-11-05T10:05:10.279Z,51.70
2022-11-05T10:06:10.219Z,53.51
2022-11-05T10:07:09.237Z,54.58
2022-11-05T10:08:09.204Z,53.44
2022-11-05T10:09:09.193Z,55.86
2022-11-05T10:10:09.186Z,58.55
2022-11-05T10:11:09.172Z,59.83
2022-11-05T10:12:09.199Z,61.43
2022-11-05T10:13:09.432Z,60.81
2022-11-05T10:14:09.162Z,60.12
2022-11-05T10:15:09.142Z,57.23
2022-11-05T10:16:09.144Z,54.36
2022-11-05T10:17:09.164Z,52.76
2022-11-05T10:18:09.122Z,52.76
2022-11-05T10:19:09.118Z,51.75
2022-11-05T10:20:09.108Z,54.76
2022-11-05T10:21:09.099Z,56.42
2022-11-05T10:22:09.128Z,58.55
2022-11-05T10:23:09.335Z,56.79
2022-11-05T10:24:09.084Z,57.82
2022-11-05T10:25:09.076Z,56.16
2022-11-05T10:26:09.070Z,55.79
2022-11-05T10:27:09.103Z,56.16
2022-11-05T10:28:09.055Z,57.37
2022-11-05T10:29:09.052Z,59.16
2022-11-05T10:30:09.034Z,60.96
2022-11-05T10:31:09.017Z,61.43
2022-11-05T10:32:09.047Z,58.35
2022-11-05T10:33:09.262Z,57.41
2022-11-05T10:34:09.006Z,56.56
2022-11-05T10:35:09.028Z,55.51
2022-11-05T10:36:08.987Z,54.41
2022-11-05T10:37:09.007Z,53.09
2022-11-05T10:38:08.974Z,52.17
2022-11-05T10:39:08.968Z,51.67
2022-11-05T10:40:08.948Z,50.73
2022-11-05T10:41:08.953Z,50.40
2022-11-05T10:42:08.966Z,50.93
2022-11-05T10:43:09.185Z,50.78
2022-11-05T10:44:08.928Z,50.56
2022-11-05T10:45:08.918Z,50.26
2022-11-05T10:46:08.916Z,49.32
2022-11-05T10:47:08.938Z,48.08
2022-11-05T10:48:08.897Z,48.25
2022-11-05T10:49:08.902Z,48.15
2022-11-05T10:50:08.885Z,47.09
2022-11-05T10:51:08.888Z,49.68
2022-11-05T10:52:08.990Z,51.27
2022-11-05T10:53:09.105Z,50.35
2022-11-05T10:54:08.861Z,50.40
2022-11-05T10:55:08.853Z,50.98
2022-11-05T10:56:08.847Z,51.84
2022-11-05T10:57:08.926Z,50.68
2022-11-05T10:58:08.835Z,50.63
2022-11-05T10:59:12.148Z,48.13
2022-11-05T11:00:09.921Z,47.85
2022-11-05T11:01:08.875Z,48.25
2022-11-05T11:02:08.871Z,48.62
2022-11-05T11:03:09.128Z,48.27
2022-11-05T11:04:08.786Z,47.50
2022-11-05T11:05:08.777Z,49.41
2022-11-05T11:06:08.770Z,48.80
2022-11-05T11:07:08.773Z,47.16
2022-11-05T11:08:09.019Z,47.86
2022-11-05T11:09:08.754Z,45.68
2022-11-05T11:10:08.774Z,44.73
2022-11-05T11:11:08.742Z,44.95
2022-11-05T11:12:08.732Z,45.15
2022-11-05T11:13:08.953Z,45.61
2022-11-05T11:14:08.714Z,46.36
2022-11-05T11:15:08.711Z,49.08
2022-11-05T11:16:08.704Z,51.77
2022-11-05T11:17:08.691Z,52.32
2022-11-05T11:18:09.723Z,53.42
2022-11-05T11:19:08.680Z,53.06
2022-11-05T11:20:08.757Z,54.64
2022-11-05T11:21:08.672Z,53.42
2022-11-05T11:22:08.667Z,54.52
2022-11-05T11:23:08.865Z,55.72
2022-11-05T11:24:08.651Z,57.23
2022-11-05T11:25:08.637Z,57.96
2022-11-05T11:26:08.633Z,61.74
2022-11-05T11:27:08.632Z,62.64
2022-11-05T11:28:08.646Z,62.87
2022-11-05T11:29:08.610Z,64.47
2022-11-05T11:30:08.631Z,65.95
2022-11-05T11:31:08.598Z,66.17
2022-11-05T11:32:08.586Z,66.57
2022-11-05T11:33:08.835Z,66.80
2022-11-05T11:34:08.587Z,67.00
2022-11-05T11:35:08.557Z,68.29
2022-11-05T11:36:08.557Z,68.29
2022-11-05T11:37:08.554Z,68.12
2022-11-05T11:38:08.609Z,70.35
2022-11-05T11:39:08.536Z,70.55
2022-11-05T11:40:10.086Z,71.60
2022-11-05T11:41:09.517Z,69.57
2022-11-05T11:42:08.513Z,64.50
2022-11-05T11:43:08.703Z,64.37
2022-11-05T11:44:08.497Z,63.36
2022-11-05T11:45:08.494Z,63.45
2022-11-05T11:46:14.030Z,60.21
2022-11-05T11:47:10.472Z,57.94
2022-11-05T11:48:08.494Z,56.91
2022-11-05T11:49:08.454Z,57.98
2022-11-05T11:50:08.445Z,58.98
2022-11-05T11:51:08.432Z,60.96
2022-11-05T11:52:08.425Z,60.48
2022-11-05T11:53:08.604Z,62.76
2022-11-05T11:54:08.431Z,60.83
2022-11-05T11:55:08.406Z,59.74
2022-11-05T11:56:08.433Z,59.30
2022-11-05T11:57:12.772Z,57.57
2022-11-05T11:58:10.409Z,61.92
2022-11-05T11:59:08.373Z,63.40
2022-11-05T12:00:11.717Z,63.52
2022-11-05T12:01:09.361Z,65.00
2022-11-05T12:02:08.432Z,66.50
2022-11-05T12:03:08.405Z,70.08
2022-11-05T12:04:08.341Z,70.52
2022-11-05T12:05:08.327Z,71.13
2022-11-05T12:06:08.318Z,71.57
2022-11-05T12:07:08.309Z,72.38
2022-11-05T12:08:08.476Z,72.04
2022-11-05T12:09:08.312Z,70.65
2022-11-05T12:10:08.321Z,69.01
2022-11-05T12:11:08.306Z,65.61
2022-11-05T12:12:08.396Z,64.05
2022-11-05T12:13:08.431Z,60.74
2022-11-05T12:14:08.245Z,60.81
2022-11-05T12:15:08.225Z,59.91
2022-11-05T12:16:09.254Z,59.65
2022-11-05T12:17:09.225Z,61.58
2022-11-05T12:18:08.238Z,63.06
2022-11-05T12:19:08.218Z,61.55
2022-11-05T12:20:08.197Z,59.82
2022-11-05T12:21:08.210Z,57.06
2022-11-05T12:22:08.189Z,56.91
2022-11-05T12:23:08.361Z,58.84
2022-11-05T12:24:08.164Z,58.54
2022-11-05T12:25:08.161Z,57.68
2022-11-05T12:26:08.148Z,57.93
2022-11-05T12:27:08.140Z,60.00
2022-11-05T12:28:08.164Z,60.83
2022-11-05T12:29:23.336Z,57.62
2022-11-05T12:30:10.116Z,56.76
2022-11-05T12:31:08.105Z,56.51
2022-11-05T12:32:08.100Z,56.23
2022-11-05T12:33:08.211Z,54.38
2022-11-05T12:34:08.090Z,54.77
2022-11-05T12:35:08.074Z,55.86
2022-11-05T12:36:08.065Z,57.20
2022-11-05T12:37:08.059Z,57.85
2022-11-05T12:38:08.092Z,56.09
2022-11-05T12:39:08.039Z,54.83
2022-11-05T12:40:08.030Z,55.43
2022-11-05T12:41:08.022Z,54.97
2022-11-05T12:42:08.013Z,54.88
2022-11-05T12:43:11.714Z,55.05
2022-11-05T12:44:09.027Z,54.68
2022-11-05T12:45:07.993Z,54.82
2022-11-05T12:46:07.986Z,54.60
2022-11-05T12:47:07.976Z,54.75
2022-11-05T12:48:07.999Z,54.68
2022-11-05T12:49:07.957Z,56.35
2022-11-05T12:50:07.940Z,54.82
2022-11-05T12:51:08.939Z,54.50
2022-11-05T12:52:07.935Z,54.95